KAPN/APN METAR and TAF weather

Enter ICAO airport designator
Station Type Date Time Source
KAPN METAR 2021/09/23 23:54 UTC NOAA

KAPN 232354Z AUTO 01011KT 6SM -RA BR OVC008 12/11 A2974 RMK AO2 RAB07 SLP074 P0003 60005 T01170111 10133 20117 56005


Station Type Date Time Source
KAPN Decoded METAR 2021/09/23 23:54 UTC NOAA

ALPENA COUNTY REGIONAL AIRPORT, MI, United States (KAPN) 45-05N 083-34W 210M
Sep 23, 2021 - 07:54 PM EDT / 2021.09.23 2354 UTC
Wind: from the N (010 degrees) at 13 MPH (11 KT):0
Visibility: 6 mile(s):0
Sky conditions: overcast
Weather: light rain; mist
Precipitation last hour: 0.03 inches
Temperature: 53.1 F (11.7 C)
Dew Point: 52.0 F (11.1 C)
Relative Humidity: 96%
Pressure (altimeter): 29.74 in. Hg (1007 hPa)
Pressure tendency: 0.01 inches (0.5 hPa) lower than three hours ago
ob: KAPN 232354Z AUTO 01011KT 6SM -RA BR OVC008 12/11 A2974 RMK AO2 RAB07 SLP074 P0003 60005 T01170111 10133 20117 56005
cycle: 0

Station Type Date Time Source
KAPN TAF 2021/09/23 23:36 UTC NOAA

TAF
AMD KAPN 232235Z 2323/2418 36013G22KT 6SM -SHRA BKN008 OVC015
TEMPO 2323/2403 3SM -SHRA
FM240300 34009KT 4SM -SHRA BR OVC006
FM240600 31007KT 4SM BR VCSH OVC006
FM241600 28010G18KT P6SM SCT060

Example: see airport list